Time;durP1;ratioP1;P1;durP2;ratioP2;P2;SDS_P1;SDS_P2;PMS_P1;PMS_P2;Temp;Humidity;BMP_temperature;BMP_pressure;BME280_temperature;BME280_humidity;BME280_pressure;Samples;Min_cycle;Max_cycle;Signal;HPM_P1;HPM_P2
2021/09/16 00:01:33;;;;;;;2.90;0.98;;;;;;;21.29;60.48;101461.38;5051859;28;20269;-69
2021/09/16 00:03:58;;;;;;;4.13;1.08;;;;;;;21.29;60.51;101467.50;5050735;28;20071;-70
2021/09/16 00:06:24;;;;;;;3.42;1.05;;;;;;;21.28;60.62;101463.16;5051644;28;20051;-70
2021/09/16 00:08:49;;;;;;;2.47;1.27;;;;;;;21.29;60.56;101469.31;5051397;28;20025;-70
2021/09/16 00:11:14;;;;;;;2.22;0.80;;;;;;;21.29;60.56;101471.97;5050985;28;20262;-71
2021/09/16 00:13:40;;;;;;;1.83;0.90;;;;;;;21.26;60.43;101466.94;5051711;28;20033;-70
2021/09/16 00:16:05;;;;;;;2.42;0.90;;;;;;;21.26;60.56;101470.41;5051394;28;20029;-71
2021/09/16 00:18:33;;;;;;;2.85;0.90;;;;;;;21.26;60.33;101475.72;5050848;28;20388;-70
2021/09/16 00:20:58;;;;;;;2.45;0.95;;;;;;;21.26;60.18;101477.53;5055323;28;20028;-70
2021/09/16 00:23:24;;;;;;;3.53;0.90;;;;;;;21.24;60.24;101471.50;5055511;28;20029;-70
2021/09/16 00:25:49;;;;;;;3.00;0.82;;;;;;;21.25;60.10;101474.03;5054350;28;20017;-69
2021/09/16 00:28:17;;;;;;;1.80;0.70;;;;;;;21.24;60.33;101474.16;5055503;28;20025;-69
2021/09/16 00:30:43;;;;;;;2.67;1.00;;;;;;;21.23;60.41;101469.84;5055262;28;20040;-70
2021/09/16 00:33:08;;;;;;;2.45;0.90;;;;;;;21.23;60.18;101473.31;5054328;28;20542;-70
2021/09/16 00:35:33;;;;;;;3.17;0.90;;;;;;;21.21;60.12;101467.31;5055165;28;20027;-69
2021/09/16 00:37:59;;;;;;;2.20;1.02;;;;;;;21.23;60.18;101467.19;5054816;28;20472;-70
2021/09/16 00:40:24;;;;;;;2.67;0.88;;;;;;;21.20;60.10;101470.94;5054502;28;20040;-71
2021/09/16 00:42:50;;;;;;;2.47;0.90;;;;;;;21.22;60.08;101470.78;5054662;28;20124;-71
2021/09/16 00:45:15;;;;;;;2.78;1.10;;;;;;;21.18;60.02;101460.44;5054711;28;20286;-70
2021/09/16 00:47:51;;;;;;;1.80;0.80;;;;;;;21.14;59.79;101452.88;5053747;28;20095;-70
2021/09/16 00:50:22;;;;;;;4.15;0.90;;;;;;;21.20;59.89;101457.66;5054987;28;20035;-70
2021/09/16 00:52:49;;;;;;;3.28;1.00;;;;;;;21.15;59.80;101452.75;5053710;28;20037;-70
2021/09/16 00:55:19;;;;;;;3.53;0.90;;;;;;;21.19;59.67;101462.16;5054594;28;20477;-70
2021/09/16 00:57:53;;;;;;;3.17;1.00;;;;;;;21.17;59.79;101461.44;5054691;28;20060;-70
2021/09/16 01:00:20;;;;;;;2.60;0.88;;;;;;;21.18;59.72;101470.22;5053650;28;20035;-71
2021/09/16 01:02:45;;;;;;;3.20;0.82;;;;;;;21.16;59.64;101467.69;5054515;28;20075;-71
2021/09/16 01:05:14;;;;;;;3.22;1.00;;;;;;;21.16;59.72;101473.00;5054575;28;20017;-70
2021/09/16 01:07:40;;;;;;;3.25;1.00;;;;;;;21.15;59.59;101479.25;5053990;28;20099;-70
2021/09/16 01:10:10;;;;;;;2.00;1.00;;;;;;;21.16;59.78;101477.47;5054135;28;20440;-70
2021/09/16 01:12:37;;;;;;;2.55;0.90;;;;;;;21.15;59.86;101479.25;5054524;28;20028;-70
2021/09/16 01:15:04;;;;;;;2.45;0.98;;;;;;;21.15;59.51;101479.25;5053433;28;20052;-70
2021/09/16 01:17:29;;;;;;;3.97;1.00;;;;;;;21.15;59.70;101481.09;5054534;28;20033;-70
2021/09/16 01:19:54;;;;;;;2.30;1.00;;;;;;;21.15;59.53;101481.09;5054338;28;20021;-70
2021/09/16 01:22:22;;;;;;;3.57;0.93;;;;;;;21.14;59.23;101482.03;5053746;28;20358;-70
2021/09/16 01:24:48;;;;;;;3.15;0.95;;;;;;;21.13;59.54;101475.91;5053969;28;20274;-70
2021/09/16 01:27:14;;;;;;;3.47;0.98;;;;;;;21.12;59.20;101479.53;5054293;28;20041;-70
2021/09/16 01:29:39;;;;;;;1.90;0.90;;;;;;;21.12;59.38;101476.88;5053364;28;20044;-70
2021/09/16 01:32:06;;;;;;;3.22;0.88;;;;;;;21.12;59.29;101479.53;5053834;28;20032;-70
2021/09/16 01:34:32;;;;;;;2.70;1.05;;;;;;;21.12;59.29;101476.03;5054244;28;20391;-70
2021/09/16 01:36:58;;;;;;;2.28;1.17;;;;;;;21.10;59.30;101478.81;5053167;28;20040;-69
2021/09/16 01:39:24;;;;;;;1.88;0.85;;;;;;;21.11;59.19;101485.81;5054232;28;20021;-70
2021/09/16 01:41:49;;;;;;;2.40;0.93;;;;;;;21.10;58.91;101478.81;5053689;28;20031;-69
2021/09/16 01:44:15;;;;;;;3.45;0.88;;;;;;;21.09;59.21;101482.44;5053253;28;20112;-70
2021/09/16 01:46:40;;;;;;;3.42;1.02;;;;;;;21.10;58.89;101485.94;5054122;28;20029;-70
2021/09/16 01:49:06;;;;;;;2.97;1.00;;;;;;;21.09;58.94;101489.53;5052803;28;20056;-71
2021/09/16 01:51:33;;;;;;;2.58;0.93;;;;;;;21.09;58.90;101489.53;5053992;28;20016;-70
2021/09/16 01:54:00;;;;;;;2.05;0.80;;;;;;;21.09;58.88;101487.72;5053575;28;20377;-70
2021/09/16 01:56:25;;;;;;;2.47;0.88;;;;;;;21.08;58.97;101486.06;5052869;28;20040;-69
2021/09/16 01:58:51;;;;;;;2.33;0.93;;;;;;;21.07;58.91;101479.06;5053523;28;20490;-70
2021/09/16 02:01:16;;;;;;;2.15;0.70;;;;;;;21.08;58.88;101482.56;5053758;28;20391;-69
2021/09/16 02:03:41;;;;;;;1.80;0.70;;;;;;;21.05;59.06;101483.66;5053148;28;20025;-70
2021/09/16 02:06:07;;;;;;;3.80;0.80;;;;;;;21.05;58.76;101488.13;5053508;28;20132;-70
2021/09/16 02:08:36;;;;;;;2.70;1.10;;;;;;;21.06;58.74;101492.44;5053705;28;20480;-70
2021/09/16 02:11:01;;;;;;;1.52;0.65;;;;;;;21.05;58.86;101488.97;5052426;28;20021;-70
2021/09/16 02:13:28;;;;;;;1.98;0.80;;;;;;;21.04;58.91;101499.69;5053692;28;20040;-69
2021/09/16 02:15:53;;;;;;;2.55;0.73;;;;;;;21.05;58.68;101501.38;5053093;28;20041;-70
2021/09/16 02:18:18;;;;;;;2.58;0.80;;;;;;;21.01;58.74;101496.34;5052650;28;20442;-70
2021/09/16 02:20:44;;;;;;;3.37;0.97;;;;;;;21.04;58.76;101503.19;5053168;28;20056;-70
2021/09/16 02:23:09;;;;;;;3.38;0.90;;;;;;;21.04;58.57;101505.00;5052970;28;20266;-70
2021/09/16 02:25:34;;;;;;;2.67;0.90;;;;;;;21.02;58.52;101505.94;5052420;28;20025;-70
2021/09/16 02:28:00;;;;;;;3.38;0.90;;;;;;;21.01;58.60;101501.66;5052701;28;20029;-70
2021/09/16 02:30:25;;;;;;;2.33;0.90;;;;;;;21.02;58.74;101499.81;5053275;28;20128;-70
2021/09/16 02:32:53;;;;;;;2.58;1.00;;;;;;;21.01;58.41;101500.78;5052148;28;20025;-70
2021/09/16 02:35:19;;;;;;;2.55;0.80;;;;;;;21.00;58.56;101493.81;5052948;28;20021;-71
2021/09/16 02:37:44;;;;;;;2.13;0.80;;;;;;;20.99;58.33;101498.25;5052786;28;20043;-70
2021/09/16 02:40:13;;;;;;;2.75;0.70;;;;;;;21.00;58.31;101509.72;5051760;28;20302;-70
2021/09/16 02:42:38;;;;;;;3.25;0.95;;;;;;;20.99;58.45;101514.16;5052572;28;20032;-70
2021/09/16 02:45:06;;;;;;;2.75;1.00;;;;;;;21.00;58.17;101512.38;5052692;28;20017;-70
2021/09/16 02:47:32;;;;;;;3.22;0.82;;;;;;;20.91;58.17;101500.72;5051615;28;20083;-70
2021/09/16 02:49:57;;;;;;;2.60;0.90;;;;;;;20.96;58.21;101506.47;5052465;28;20441;-71
2021/09/16 02:52:22;;;;;;;2.92;0.98;;;;;;;20.98;58.39;101507.19;5052046;28;20092;-71
2021/09/16 02:54:48;;;;;;;2.30;0.80;;;;;;;20.95;58.32;101507.44;5052241;28;20064;-70
2021/09/16 02:57:13;;;;;;;2.33;0.80;;;;;;;20.97;58.08;101507.31;5052671;28;20355;-70
2021/09/16 02:59:39;;;;;;;3.20;1.13;;;;;;;20.96;58.19;101503.81;5052162;28;20028;-69
2021/09/16 03:02:04;;;;;;;2.22;0.90;;;;;;;20.95;58.17;101510.09;5052434;28;20052;-70
2021/09/16 03:04:29;;;;;;;1.63;0.70;;;;;;;20.96;57.96;101511.75;5052752;28;20120;-71
2021/09/16 03:06:54;;;;;;;1.60;0.80;;;;;;;20.96;58.15;101514.41;5051539;28;20033;-70
2021/09/16 03:09:21;;;;;;;2.50;0.87;;;;;;;20.94;58.24;101511.06;5052630;28;20171;-71
2021/09/16 03:11:46;;;;;;;1.60;0.70;;;;;;;20.94;58.11;101513.72;5052453;28;20028;-70
2021/09/16 03:14:12;;;;;;;1.95;0.80;;;;;;;20.94;57.91;101515.53;5051732;28;20440;-70
2021/09/16 03:16:40;;;;;;;1.45;0.82;;;;;;;20.93;57.91;101511.19;5052271;28;20476;-70
2021/09/16 03:19:05;;;;;;;2.33;0.80;;;;;;;20.94;58.02;101516.34;5052046;28;20025;-70
2021/09/16 03:21:30;;;;;;;2.38;1.00;;;;;;;20.92;57.86;101515.66;5051784;28;20033;-71
2021/09/16 03:23:55;;;;;;;3.95;1.00;;;;;;;20.92;57.73;101514.78;5051993;28;20025;-70
2021/09/16 03:26:21;;;;;;;2.67;0.90;;;;;;;20.90;57.92;101506.97;5052329;28;20044;-70
2021/09/16 03:28:46;;;;;;;2.63;1.00;;;;;;;20.91;57.80;101507.81;5051589;28;20024;-70
2021/09/16 03:31:14;;;;;;;2.87;0.90;;;;;;;20.92;58.03;101512.13;5051951;28;20075;-71
2021/09/16 03:33:40;;;;;;;2.30;0.90;;;;;;;20.92;57.79;101517.44;5052118;28;20360;-71
2021/09/16 03:36:05;;;;;;;1.88;0.80;;;;;;;20.90;58.04;101517.56;5051080;28;20088;-70
2021/09/16 03:38:30;;;;;;;2.27;1.00;;;;;;;20.90;57.81;101529.97;5052186;28;20029;-71
2021/09/16 03:40:56;;;;;;;1.60;0.70;;;;;;;20.90;57.71;101524.69;5051791;28;20262;-69
2021/09/16 03:43:21;;;;;;;2.45;0.95;;;;;;;20.90;57.85;101528.16;5051576;28;20029;-70
2021/09/16 03:45:46;;;;;;;1.97;0.70;;;;;;;20.89;58.05;101531.81;5052445;28;20029;-72
2021/09/16 03:48:12;;;;;;;2.03;0.90;;;;;;;20.89;57.88;101530.97;5051738;28;20332;-71
2021/09/16 03:50:37;;;;;;;3.38;0.90;;;;;;;20.88;57.81;101530.09;5051502;28;20373;-70
2021/09/16 03:53:03;;;;;;;2.63;0.90;;;;;;;20.88;57.82;101530.09;5051795;28;20021;-69
2021/09/16 03:55:29;;;;;;;3.03;1.00;;;;;;;20.87;57.89;101528.44;5055363;28;20372;-71
2021/09/16 03:57:54;;;;;;;2.45;0.90;;;;;;;20.87;57.96;101535.53;5054954;28;20040;-70
2021/09/16 04:00:19;;;;;;;1.67;0.80;;;;;;;20.87;57.81;101539.03;5056243;28;20033;-70
2021/09/16 04:02:45;;;;;;;5.13;1.00;;;;;;;20.87;57.70;101540.81;5055542;28;20025;-70
2021/09/16 04:05:11;;;;;;;2.10;0.88;;;;;;;20.86;57.48;101534.69;5055473;28;20403;-71
2021/09/16 04:07:37;;;;;;;3.33;0.93;;;;;;;20.86;57.70;101534.69;5055731;28;20064;-70
2021/09/16 04:10:04;;;;;;;4.03;0.95;;;;;;;20.85;57.78;101538.31;5054558;28;20028;-71
2021/09/16 04:12:29;;;;;;;2.55;0.82;;;;;;;20.84;57.67;101534.81;5055931;28;20095;-71
2021/09/16 04:14:54;;;;;;;1.95;0.85;;;;;;;20.85;57.76;101538.31;5055471;28;20468;-70
2021/09/16 04:17:20;;;;;;;2.33;1.02;;;;;;;20.84;57.53;101534.00;5054897;28;20116;-71
2021/09/16 04:19:45;;;;;;;2.33;0.70;;;;;;;20.84;57.48;101537.47;5055690;28;20465;-70
2021/09/16 04:22:10;;;;;;;2.08;0.90;;;;;;;20.84;57.75;101539.28;5055213;28;20064;-71
2021/09/16 04:24:36;;;;;;;3.22;1.10;;;;;;;20.84;57.68;101539.28;5054661;28;20028;-70
2021/09/16 04:27:01;;;;;;;2.55;0.90;;;;;;;20.83;57.54;101541.06;5055242;28;20083;-70
2021/09/16 04:29:27;;;;;;;2.42;0.80;;;;;;;20.83;57.59;101546.38;5055267;28;20478;-70
2021/09/16 04:31:52;;;;;;;1.80;0.88;;;;;;;20.82;57.53;101542.06;5054373;28;20021;-70
2021/09/16 04:34:17;;;;;;;3.72;1.15;;;;;;;20.83;57.77;101543.72;5055167;28;20401;-70
2021/09/16 04:36:43;;;;;;;2.33;1.00;;;;;;;20.82;57.63;101541.19;5055109;28;20029;-71
2021/09/16 04:39:08;;;;;;;2.97;1.10;;;;;;;20.81;57.42;101535.06;5054069;28;20021;-70
2021/09/16 04:41:34;;;;;;;1.65;0.90;;;;;;;20.82;57.50;101544.72;5055293;28;20262;-70
2021/09/16 04:44:02;;;;;;;3.40;1.10;;;;;;;20.82;57.55;101543.84;5054979;28;20040;-71
2021/09/16 04:46:27;;;;;;;2.75;1.20;;;;;;;20.82;57.43;101539.41;5054215;28;20025;-70
2021/09/16 04:48:52;;;;;;;2.67;1.00;;;;;;;20.80;57.49;101543.97;5053385;28;20060;-71
2021/09/16 04:51:18;;;;;;;2.23;0.90;;;;;;;20.81;57.60;101547.47;5053695;28;20029;-71
2021/09/16 04:53:43;;;;;;;2.20;0.95;;;;;;;20.80;57.46;101545.78;5052779;28;20341;-70
2021/09/16 04:56:08;;;;;;;2.05;1.00;;;;;;;20.80;57.34;101545.78;5053348;28;20025;-70
2021/09/16 04:58:34;;;;;;;2.78;0.88;;;;;;;20.79;57.32;101549.41;5053610;28;20460;-70
2021/09/16 05:00:59;;;;;;;2.50;1.10;;;;;;;20.79;57.40;101554.69;5052611;28;20039;-71
2021/09/16 05:03:24;;;;;;;3.25;1.20;;;;;;;20.78;57.26;101553.88;5053624;28;20336;-70
2021/09/16 05:05:50;;;;;;;3.67;1.10;;;;;;;20.78;57.46;101548.56;5052847;28;20033;-70
2021/09/16 05:08:15;;;;;;;3.13;1.00;;;;;;;20.78;57.20;101543.28;5052665;28;20025;-70
2021/09/16 05:10:44;;;;;;;3.40;1.30;;;;;;;20.77;57.29;101556.63;5052909;28;20033;-71
2021/09/16 05:13:09;;;;;;;2.33;1.00;;;;;;;20.77;57.20;101554.81;5052530;28;20017;-71
2021/09/16 05:15:38;;;;;;;2.22;1.10;;;;;;;20.77;57.29;101560.13;5053274;28;20098;-70
2021/09/16 05:18:03;;;;;;;2.63;1.10;;;;;;;20.77;57.30;101557.47;5053037;28;20115;-71
2021/09/16 05:20:29;;;;;;;3.60;1.30;;;;;;;20.77;57.32;101561.94;5052462;28;20056;-71
2021/09/16 05:22:54;;;;;;;3.50;1.10;;;;;;;20.75;57.19;101559.41;5052745;28;20025;-67
2021/09/16 05:25:19;;;;;;;2.50;1.10;;;;;;;20.74;57.51;101555.06;5053281;28;20104;-67
2021/09/16 05:27:44;;;;;;;2.60;1.10;;;;;;;20.73;57.44;101549.88;5052442;28;20266;-67
2021/09/16 05:30:10;;;;;;;3.35;1.20;;;;;;;20.71;57.44;101558.00;5052742;28;20032;-67
2021/09/16 05:32:37;;;;;;;3.20;1.10;;;;;;;20.71;57.30;101570.38;5053005;28;20025;-68
2021/09/16 05:35:04;;;;;;;3.28;1.10;;;;;;;20.72;57.45;101574.72;5051899;28;20057;-69
2021/09/16 05:37:30;;;;;;;3.65;1.00;;;;;;;20.72;57.43;101577.38;5052714;28;20032;-67
2021/09/16 05:39:55;;;;;;;3.00;1.17;;;;;;;20.72;57.54;101575.53;5052472;28;20017;-67
2021/09/16 05:42:20;;;;;;;2.67;1.17;;;;;;;20.73;57.80;101579.03;5053037;28;20040;-68
2021/09/16 05:44:48;;;;;;;3.83;1.38;;;;;;;20.74;57.69;101586.84;5055264;28;20056;-66
2021/09/16 05:47:13;;;;;;;3.65;1.13;;;;;;;20.72;57.64;101578.19;5018099;28;1036650;-67
2021/09/16 05:49:41;;;;;;;4.30;1.20;;;;;;;20.75;57.84;101583.25;5054829;28;20064;-65
2021/09/16 05:52:07;;;;;;;2.78;1.20;;;;;;;20.74;57.78;101576.25;5055725;28;20344;-66
2021/09/16 05:54:32;;;;;;;3.78;1.23;;;;;;;20.76;57.61;101576.13;5056158;28;20033;-66
2021/09/16 05:56:57;;;;;;;3.20;1.10;;;;;;;20.75;58.04;101579.78;5055569;28;20129;-63
2021/09/16 05:59:22;;;;;;;4.00;1.10;;;;;;;20.77;57.87;101580.47;5056915;28;20771;-64
2021/09/16 06:01:48;;;;;;;2.73;1.10;;;;;;;20.78;57.89;101582.16;5054851;28;20284;-65
2021/09/16 06:04:13;;;;;;;3.80;1.42;;;;;;;20.76;58.38;101586.72;5052707;28;20277;-64
2021/09/16 06:06:38;;;;;;;2.30;1.03;;;;;;;20.78;57.88;101590.94;5053372;28;20184;-67
2021/09/16 06:09:13;;;;;;;2.73;1.10;;;;;;;20.77;58.08;101597.19;5052991;28;20274;-67
2021/09/16 06:11:38;;;;;;;4.38;1.20;;;;;;;20.80;58.23;101596.13;5052512;28;20753;-64
2021/09/16 06:14:03;;;;;;;2.47;1.00;;;;;;;20.76;58.46;101592.03;5053059;28;20051;-65
2021/09/16 06:16:28;;;;;;;2.92;1.20;;;;;;;20.82;58.20;101594.19;5051794;28;20313;-64
2021/09/16 06:18:54;;;;;;;2.42;1.30;;;;;;;20.80;58.22;101591.66;5053007;28;20025;-64
2021/09/16 06:21:19;;;;;;;3.08;1.50;;;;;;;20.81;58.25;101593.34;5053168;28;20028;-66
2021/09/16 06:23:45;;;;;;;4.03;1.17;;;;;;;20.80;58.55;101585.53;5052476;28;20155;-68
2021/09/16 06:26:10;;;;;;;4.40;1.23;;;;;;;20.83;58.61;101587.94;5052855;28;20052;-72
2021/09/16 06:28:35;;;;;;;3.43;1.07;;;;;;;20.83;58.32;101587.94;5053305;28;20112;-68
2021/09/16 06:31:01;;;;;;;3.75;1.10;;;;;;;20.83;58.46;101599.34;5052130;28;20324;-67
2021/09/16 06:33:29;;;;;;;4.68;1.10;;;;;;;20.83;58.27;101599.34;5053209;28;20017;-67
2021/09/16 06:35:55;;;;;;;4.05;1.40;;;;;;;20.84;58.53;101594.91;5052427;28;20035;-68
2021/09/16 06:38:20;;;;;;;3.40;1.27;;;;;;;20.84;58.47;101600.22;5052485;28;20095;-68
2021/09/16 06:40:45;;;;;;;3.80;1.20;;;;;;;20.86;58.59;101600.09;5053030;28;20078;-66
2021/09/16 06:43:17;;;;;;;3.45;1.10;;;;;;;20.85;58.57;101599.22;5052993;28;20024;-66
2021/09/16 06:45:42;;;;;;;2.72;1.20;;;;;;;20.88;58.68;101603.44;5052527;28;20021;-67
2021/09/16 06:48:07;;;;;;;3.08;1.10;;;;;;;20.90;58.74;101604.16;5052453;28;20413;-66
2021/09/16 06:50:33;;;;;;;2.70;1.30;;;;;;;20.89;59.15;101597.19;5052787;28;20040;-63
2021/09/16 06:52:58;;;;;;;3.53;1.45;;;;;;;20.91;59.03;101604.03;5052139;28;20436;-66
2021/09/16 06:55:33;;;;;;;4.63;1.70;;;;;;;20.92;58.55;101599.56;5052964;28;20025;-64
2021/09/16 06:57:58;;;;;;;7.43;2.00;;;;;;;20.92;58.37;101605.72;5052329;28;20044;-65
2021/09/16 07:00:23;;;;;;;4.47;1.73;;;;;;;20.92;58.63;101603.09;5052014;28;20021;-64
2021/09/16 07:02:54;;;;;;;3.93;1.57;;;;;;;20.92;58.76;101602.22;5052497;28;20029;-66
2021/09/16 07:05:19;;;;;;;4.57;1.65;;;;;;;20.94;58.83;101605.59;5052826;28;20366;-67
2021/09/16 07:07:45;;;;;;;3.78;1.58;;;;;;;20.97;58.89;101608.00;5051974;28;20462;-64
2021/09/16 07:10:11;;;;;;;3.97;1.17;;;;;;;20.96;58.96;101607.16;5052666;28;20101;-65
2021/09/16 07:12:36;;;;;;;6.25;1.38;;;;;;;21.00;58.76;101611.25;5051962;28;20025;-66
2021/09/16 07:15:05;;;;;;;6.15;1.65;;;;;;;20.98;58.96;101607.88;5052277;28;20196;-66
2021/09/16 07:17:31;;;;;;;4.97;1.50;;;;;;;21.06;59.10;101617.88;5052241;28;20111;-65
2021/09/16 07:19:56;;;;;;;2.80;1.10;;;;;;;21.06;58.82;101612.56;5051593;28;20191;-66
2021/09/16 07:22:22;;;;;;;5.35;1.40;;;;;;;21.09;58.88;101606.16;5052493;28;20056;-66
2021/09/16 07:24:53;;;;;;;6.55;1.55;;;;;;;21.10;59.16;101611.31;5051951;28;20483;-67
2021/09/16 07:27:19;;;;;;;6.60;1.27;;;;;;;21.11;59.13;101613.03;5051636;28;20025;-68
2021/09/16 07:29:44;;;;;;;4.97;1.40;;;;;;;21.12;59.07;101616.50;5052060;28;20044;-69
2021/09/16 07:32:09;;;;;;;6.00;1.33;;;;;;;21.14;59.36;101611.91;5051823;28;20407;-66
2021/09/16 07:34:34;;;;;;;4.30;1.30;;;;;;;21.14;59.51;101615.44;5051848;28;20072;-67
2021/09/16 07:37:00;;;;;;;4.13;0.93;;;;;;;21.15;59.28;101617.09;5051982;28;20388;-65
2021/09/16 07:39:25;;;;;;;5.80;1.50;;;;;;;21.15;59.74;101617.09;5052349;28;20296;-66
2021/09/16 07:41:51;;;;;;;5.53;1.33;;;;;;;21.15;59.58;101613.59;5051184;28;20029;-63
2021/09/16 07:44:17;;;;;;;3.67;1.20;;;;;;;21.15;59.51;101618.91;5052467;28;20036;-64
2021/09/16 07:46:43;;;;;;;8.10;1.50;;;;;;;21.15;59.63;101622.38;5052163;28;20056;-62
2021/09/16 07:49:12;;;;;;;2.72;1.13;;;;;;;21.16;59.55;101626.72;5051128;28;20080;-67
2021/09/16 07:51:37;;;;;;;3.33;1.33;;;;;;;21.18;59.56;101630.09;5054185;28;20064;-68
2021/09/16 07:54:03;;;;;;;6.15;1.35;;;;;;;21.21;59.69;101631.66;5052104;28;20065;-65
2021/09/16 07:56:31;;;;;;;6.00;1.30;;;;;;;21.20;59.73;101630.81;5052066;28;20025;-66
2021/09/16 07:58:56;;;;;;;4.28;1.20;;;;;;;21.22;59.64;101625.41;5052303;28;20029;-62
2021/09/16 08:01:21;;;;;;;5.68;1.50;;;;;;;21.23;59.79;101632.38;5052289;28;20116;-63
2021/09/16 08:03:47;;;;;;;5.57;1.47;;;;;;;21.25;59.65;101630.41;5052093;28;20179;-66
2021/09/16 08:06:16;;;;;;;5.60;1.20;;;;;;;21.26;59.84;101632.13;5053322;28;20691;-66
2021/09/16 08:08:41;;;;;;;4.03;1.40;;;;;;;21.28;59.98;101635.47;5053115;28;20108;-66
2021/09/16 08:11:06;;;;;;;3.05;1.20;;;;;;;21.30;59.68;101638.00;5052360;28;20081;-66
2021/09/16 08:13:32;;;;;;;2.97;1.13;;;;;;;21.33;60.05;101643.03;5053367;28;20501;-64
2021/09/16 08:16:00;;;;;;;5.03;1.48;;;;;;;21.32;59.85;101636.09;5051400;28;20025;-64
2021/09/16 08:18:28;;;;;;;7.82;2.10;;;;;;;21.30;60.12;101630.91;5052781;28;20025;-67
2021/09/16 08:20:53;;;;;;;4.90;1.30;;;;;;;21.33;60.04;101637.75;5052173;28;20017;-64
2021/09/16 08:23:22;;;;;;;3.92;1.40;;;;;;;21.31;60.03;101640.53;5051296;28;20028;-64
2021/09/16 08:25:48;;;;;;;3.35;1.20;;;;;;;21.33;59.99;101643.03;5051127;28;20127;-65
2021/09/16 08:28:14;;;;;;;4.13;1.38;;;;;;;21.33;59.90;101649.22;5051549;28;20100;-63
2021/09/16 08:30:41;;;;;;;5.60;1.40;;;;;;;21.33;59.83;101646.56;5051163;28;20096;-65
2021/09/16 08:33:06;;;;;;;4.97;1.00;;;;;;;21.34;60.03;101644.75;5051421;28;20421;-66
2021/09/16 08:35:32;;;;;;;6.35;1.23;;;;;;;21.36;60.04;101648.09;5051778;28;20064;-65
2021/09/16 08:37:57;;;;;;;4.28;1.25;;;;;;;21.38;60.22;101643.53;5050285;28;20064;-68
2021/09/16 08:40:23;;;;;;;5.68;1.05;;;;;;;21.40;59.99;101646.06;5052974;28;20036;-72
2021/09/16 08:42:49;;;;;;;6.22;1.10;;;;;;;21.41;60.18;101645.06;5054774;28;20043;-68
2021/09/16 08:45:16;;;;;;;4.30;1.17;;;;;;;21.42;60.22;101649.41;5054618;28;20021;-68
2021/09/16 08:47:44;;;;;;;3.88;1.10;;;;;;;21.42;60.04;101657.38;5055059;28;20071;-64
2021/09/16 08:50:14;;;;;;;5.45;1.17;;;;;;;21.37;60.14;101647.97;5054775;28;20552;-66
2021/09/16 08:52:42;;;;;;;3.83;1.30;;;;;;;21.44;60.30;101653.59;5063542;28;20383;-67
2021/09/16 08:55:10;;;;;;;2.88;1.27;;;;;;;21.43;60.25;101653.72;5056757;28;20094;-68
2021/09/16 08:57:43;;;;;;;7.90;1.45;;;;;;;21.40;60.63;101644.25;5055290;28;20029;-71
2021/09/16 09:00:13;;;;;;;6.28;1.10;;;;;;;21.44;60.79;101652.78;5053816;28;20070;-68
2021/09/16 09:02:38;;;;;;;5.20;1.30;;;;;;;21.45;60.51;101655.31;5055049;28;20045;-68
2021/09/16 09:05:06;;;;;;;5.72;1.20;;;;;;;21.43;60.48;101649.28;5054585;28;20025;-67
2021/09/16 09:07:43;;;;;;;4.65;1.10;;;;;;;21.47;60.57;101655.19;5054258;28;20488;-69
2021/09/16 09:10:11;;;;;;;3.95;1.10;;;;;;;21.45;60.36;101649.16;5054329;28;20518;-68
2021/09/16 09:12:38;;;;;;;2.67;1.08;;;;;;;21.45;60.66;101660.59;5054138;28;20063;-67
2021/09/16 09:15:07;;;;;;;3.20;1.00;;;;;;;21.45;60.56;101667.72;5054412;28;20100;-65
2021/09/16 09:17:34;;;;;;;6.32;0.98;;;;;;;21.43;60.37;101656.38;5054436;28;20041;-66
2021/09/16 09:20:08;;;;;;;3.05;0.93;;;;;;;21.45;60.42;101671.22;5053698;28;20089;-65
2021/09/16 09:22:34;;;;;;;;;;;;;;;21.45;60.54;101670.38;5054728;28;20424;-67
2021/09/16 09:25:12;;;;;;;4.43;0.80;;;;;;;21.46;60.39;101666.75;5054197;28;19943;-63
2021/09/16 09:27:45;;;;;;;4.20;1.02;;;;;;;21.46;60.14;101664.94;5053644;28;20104;-61
2021/09/16 09:30:17;;;;;;;5.47;1.10;;;;;;;21.46;60.36;101666.75;5053843;28;20052;-65
2021/09/16 09:32:54;;;;;;;4.22;1.02;;;;;;;21.43;60.38;101675.81;5054210;28;20121;-64
2021/09/16 09:35:30;;;;;;;5.75;1.00;;;;;;;21.42;60.27;101681.25;5053801;28;20040;-63
2021/09/16 09:37:57;;;;;;;3.13;1.00;;;;;;;21.41;60.07;101679.53;5053891;28;20121;-65
2021/09/16 09:40:37;;;;;;;5.70;1.00;;;;;;;21.43;60.27;101682.91;5053378;28;20025;-63
2021/09/16 09:43:26;;;;;;;4.28;1.08;;;;;;;21.44;59.88;101677.47;5053857;28;20104;-65
2021/09/16 09:46:12;;;;;;;3.35;0.90;;;;;;;21.44;60.08;101680.13;5053817;28;20025;-63
2021/09/16 09:48:59;;;;;;;3.05;1.05;;;;;;;21.42;59.97;101671.47;5052902;28;20053;-64
2021/09/16 09:51:33;;;;;;;6.68;1.05;;;;;;;21.42;60.18;101674.13;5052649;28;20032;-67
2021/09/16 09:54:12;;;;;;;4.35;0.93;;;;;;;21.42;60.23;101676.75;5053853;28;20028;-65
2021/09/16 09:56:37;;;;;;;4.18;1.10;;;;;;;21.43;60.37;101674.94;5053128;28;20541;-66
2021/09/16 09:59:03;;;;;;;5.07;1.02;;;;;;;21.44;60.08;101671.34;5053773;28;20029;-63
2021/09/16 10:01:36;;;;;;;4.85;1.00;;;;;;;21.45;60.28;101671.22;5053336;28;20028;-63
2021/09/16 10:04:31;;;;;;;3.75;1.02;;;;;;;21.45;60.23;101681.81;5053887;28;20021;-62
2021/09/16 10:06:59;;;;;;;2.92;1.00;;;;;;;21.44;60.13;101682.78;5053185;28;20182;-63
2021/09/16 10:09:25;;;;;;;2.95;0.93;;;;;;;21.45;59.90;101687.13;5052478;28;20504;-64
2021/09/16 10:11:57;;;;;;;8.18;4.32;;;;;;;21.43;60.17;101680.25;5053354;28;20025;-64
2021/09/16 10:14:22;;;;;;;7.75;6.30;;;;;;;21.44;60.32;101684.59;5053783;28;20104;-64
2021/09/16 10:16:54;;;;;;;12.25;10.95;;;;;;;21.45;60.37;101683.63;5052400;28;20140;-65
2021/09/16 10:19:19;;;;;;;15.10;13.55;;;;;;;21.45;60.49;101683.63;5053264;28;20033;-62
2021/09/16 10:21:45;;;;;;;18.02;16.13;;;;;;;21.46;60.29;101678.22;5053392;28;20492;-63
2021/09/16 10:24:16;;;;;;;16.90;15.18;;;;;;;21.48;60.61;101672.78;5052084;28;20053;-62
2021/09/16 10:26:47;;;;;;;17.52;15.65;;;;;;;21.50;60.48;101678.81;5053118;28;20021;-63
2021/09/16 10:29:28;;;;;;;15.32;13.80;;;;;;;21.51;60.64;101672.56;5053023;28;20021;-63
2021/09/16 10:32:13;;;;;;;15.48;13.93;;;;;;;21.52;60.46;101667.13;5052261;28;20025;-62
2021/09/16 10:34:46;;;;;;;16.27;14.57;;;;;;;21.52;60.55;101674.22;5052761;28;20032;-62
2021/09/16 10:37:18;;;;;;;16.23;14.60;;;;;;;21.53;60.73;101673.25;5052079;28;20025;-63
2021/09/16 10:39:44;;;;;;;17.77;14.85;;;;;;;21.53;60.60;101671.44;5052771;28;20075;-63
2021/09/16 10:42:11;;;;;;;15.35;13.85;;;;;;;21.54;60.80;101669.66;5052602;28;20021;-64
2021/09/16 10:44:39;;;;;;;14.63;13.20;;;;;;;21.54;60.61;101662.53;5052236;28;20044;-63
2021/09/16 10:47:22;;;;;;;15.90;12.55;;;;;;;21.57;60.50;101664.09;5052065;28;20487;-63
2021/09/16 10:49:50;;;;;;;13.90;12.43;;;;;;;21.56;60.88;101671.19;5052707;28;20083;-64
2021/09/16 10:52:24;;;;;;;14.02;12.27;;;;;;;21.58;60.95;101668.41;5051888;28;20048;-63
2021/09/16 10:54:54;;;;;;;13.38;11.07;;;;;;;21.56;60.82;101670.38;5052219;28;20029;-63
2021/09/16 10:57:28;;;;;;;11.98;10.77;;;;;;;21.59;60.89;101663.94;5052702;28;20061;-64
2021/09/16 10:59:53;;;;;;;13.10;10.82;;;;;;;21.60;60.83;101660.31;5051448;28;20025;-63
2021/09/16 11:02:26;;;;;;;11.73;10.23;;;;;;;21.60;61.09;101658.50;5052223;28;20091;-64
2021/09/16 11:04:54;;;;;;;11.98;9.90;;;;;;;21.60;61.14;101662.97;5051110;28;20183;-64
2021/09/16 11:07:31;;;;;;;10.80;9.20;;;;;;;21.59;61.13;101659.50;5052252;28;20480;-63
2021/09/16 11:10:16;;;;;;;10.73;9.40;;;;;;;21.58;61.22;101657.81;5052179;28;20060;-63
2021/09/16 11:12:46;;;;;;;10.95;9.00;;;;;;;21.59;60.96;101663.94;5051341;28;20033;-63
2021/09/16 11:15:14;;;;;;;10.15;8.43;;;;;;;21.58;60.93;101667.59;5052263;28;20025;-64
2021/09/16 11:17:44;;;;;;;9.32;7.90;;;;;;;21.56;61.08;101663.22;5052272;28;20039;-61
2021/09/16 11:20:12;;;;;;;11.38;7.85;;;;;;;21.57;61.22;101664.09;5051128;28;20075;-62
2021/09/16 11:22:37;;;;;;;9.77;7.35;;;;;;;21.56;60.71;101660.59;5052262;28;20029;-62
2021/09/16 11:25:07;;;;;;;8.52;7.25;;;;;;;21.55;61.18;101663.38;5051859;28;20074;-62